createdAt,value
2022-09-16T00:01:29.531Z,1.90
2022-09-16T00:04:27.030Z,1.90
2022-09-16T00:07:24.427Z,1.90
2022-09-16T00:10:22.395Z,2.00
2022-09-16T00:13:19.866Z,2.10
2022-09-16T00:16:17.428Z,2.20
2022-09-16T00:19:14.976Z,2.30
2022-09-16T00:22:13.068Z,2.30
2022-09-16T00:25:10.540Z,2.70
2022-09-16T00:28:08.566Z,2.30
2022-09-16T00:31:06.101Z,2.50
2022-09-16T00:34:03.558Z,2.50
2022-09-16T00:37:03.336Z,2.50
2022-09-16T00:40:01.054Z,2.30
2022-09-16T00:43:00.269Z,2.80
2022-09-16T00:45:57.699Z,2.90
2022-09-16T00:48:55.138Z,3.00
2022-09-16T00:51:52.585Z,3.20
2022-09-16T00:54:50.034Z,2.40
2022-09-16T00:57:47.473Z,2.60
2022-09-16T01:00:44.913Z,2.60
2022-09-16T01:03:43.108Z,2.80
2022-09-16T01:06:40.565Z,2.50
2022-09-16T01:09:38.005Z,2.40
2022-09-16T01:12:35.404Z,2.60
2022-09-16T01:15:32.879Z,2.60
2022-09-16T01:18:30.605Z,2.90
2022-09-16T01:21:28.019Z,2.30
2022-09-16T01:24:25.434Z,2.30
2022-09-16T01:27:22.880Z,2.50
2022-09-16T01:30:20.334Z,2.70
2022-09-16T01:33:17.742Z,2.40
2022-09-16T01:36:15.256Z,2.60
2022-09-16T01:39:12.654Z,2.60
2022-09-16T01:42:10.230Z,2.70
2022-09-16T01:45:07.690Z,2.60
2022-09-16T01:48:05.130Z,2.50
2022-09-16T01:51:02.554Z,2.90
2022-09-16T01:54:00.020Z,2.60
2022-09-16T01:56:57.476Z,2.80
2022-09-16T01:59:54.977Z,2.50
2022-09-16T02:02:52.456Z,2.70
2022-09-16T02:05:49.929Z,2.60
2022-09-16T02:08:47.388Z,3.00
2022-09-16T02:11:44.838Z,2.80
2022-09-16T02:14:42.280Z,3.00
2022-09-16T02:17:39.688Z,2.80
2022-09-16T02:20:37.171Z,2.70
2022-09-16T02:23:34.607Z,2.90
2022-09-16T02:26:32.046Z,2.80
2022-09-16T02:29:29.468Z,2.90
2022-09-16T02:32:26.898Z,2.80
2022-09-16T02:35:24.351Z,2.90
2022-09-16T02:38:21.776Z,3.20
2022-09-16T02:41:19.230Z,2.60
2022-09-16T02:44:16.659Z,2.80
2022-09-16T02:47:14.095Z,2.70
2022-09-16T02:50:11.571Z,2.50
2022-09-16T02:53:09.014Z,3.10
2022-09-16T02:56:07.178Z,3.20
2022-09-16T02:59:05.878Z,2.60
2022-09-16T03:02:03.385Z,3.00
2022-09-16T03:05:00.875Z,2.80
2022-09-16T03:07:58.331Z,2.90
2022-09-16T03:10:55.747Z,2.90
2022-09-16T03:13:55.180Z,3.20
2022-09-16T03:16:52.652Z,2.70
2022-09-16T03:19:50.256Z,2.60
2022-09-16T03:22:47.704Z,2.70
2022-09-16T03:25:45.426Z,3.00
2022-09-16T03:28:42.852Z,3.40
2022-09-16T03:31:40.294Z,3.10
2022-09-16T03:34:37.749Z,2.90
2022-09-16T03:37:35.619Z,2.80
2022-09-16T03:40:33.129Z,3.10
2022-09-16T03:43:30.607Z,3.30
2022-09-16T03:46:29.035Z,3.00
2022-09-16T03:49:26.518Z,3.40
2022-09-16T03:52:23.913Z,3.00
2022-09-16T03:55:21.363Z,3.10
2022-09-16T03:58:18.772Z,3.40
2022-09-16T04:01:16.271Z,3.40
2022-09-16T04:04:13.765Z,3.00
2022-09-16T04:07:11.194Z,3.70
2022-09-16T04:10:08.622Z,3.80
2022-09-16T04:13:06.090Z,3.70
2022-09-16T04:16:03.632Z,3.70
2022-09-16T04:19:01.237Z,3.50
2022-09-16T04:21:58.715Z,3.40
2022-09-16T04:24:56.145Z,3.50
2022-09-16T04:27:53.573Z,3.30
2022-09-16T04:30:51.082Z,3.30
2022-09-16T04:33:48.519Z,3.60
2022-09-16T04:36:45.938Z,3.70
2022-09-16T04:39:43.380Z,3.80
2022-09-16T04:42:40.815Z,3.60
2022-09-16T04:45:38.257Z,3.60
2022-09-16T04:48:35.697Z,3.50
2022-09-16T04:51:33.339Z,3.70
2022-09-16T04:54:30.783Z,3.60
2022-09-16T04:57:28.203Z,4.00
2022-09-16T05:00:26.099Z,3.50
2022-09-16T05:03:23.569Z,3.70
2022-09-16T05:06:21.134Z,3.90
2022-09-16T05:09:18.615Z,3.70
2022-09-16T05:12:16.109Z,4.00
2022-09-16T05:15:13.541Z,3.90
2022-09-16T05:18:10.937Z,4.10
2022-09-16T05:21:08.349Z,3.30
2022-09-16T05:24:06.059Z,4.40
2022-09-16T05:27:03.506Z,4.10
2022-09-16T05:30:00.946Z,3.70
2022-09-16T05:32:58.361Z,3.60
2022-09-16T05:35:55.782Z,3.90
2022-09-16T05:39:18.302Z,3.40
2022-09-16T05:42:10.607Z,3.20
2022-09-16T05:45:08.050Z,3.80
2022-09-16T05:48:05.485Z,3.60
2022-09-16T05:51:02.905Z,3.70
2022-09-16T05:54:00.376Z,3.30
2022-09-16T05:56:57.799Z,3.40
2022-09-16T05:59:55.232Z,3.60
2022-09-16T06:02:52.701Z,3.70
2022-09-16T06:05:50.227Z,3.50
2022-09-16T06:08:47.654Z,4.00
2022-09-16T06:11:45.085Z,3.70
2022-09-16T06:14:42.487Z,3.90
2022-09-16T06:17:39.942Z,3.20
2022-09-16T06:20:37.379Z,3.40
2022-09-16T06:23:34.821Z,4.60
2022-09-16T06:26:32.244Z,4.40
2022-09-16T06:29:29.678Z,3.40
2022-09-16T06:32:27.114Z,3.80
2022-09-16T06:35:24.533Z,3.60
2022-09-16T06:38:22.452Z,3.20
2022-09-16T06:41:19.897Z,3.90
2022-09-16T06:44:17.305Z,4.70
2022-09-16T06:47:14.738Z,3.20
2022-09-16T06:50:12.141Z,2.50
2022-09-16T06:53:09.589Z,2.80
2022-09-16T06:56:07.023Z,3.30
2022-09-16T06:59:04.463Z,2.90
2022-09-16T07:02:01.996Z,2.80
2022-09-16T07:04:59.566Z,2.70
2022-09-16T07:07:57.149Z,2.80
2022-09-16T07:10:54.556Z,3.30
2022-09-16T07:13:51.999Z,2.50
2022-09-16T07:16:49.499Z,2.50
2022-09-16T07:19:47.747Z,2.70
2022-09-16T07:22:45.243Z,2.20
2022-09-16T07:25:42.664Z,2.50
2022-09-16T07:28:40.095Z,2.10
2022-09-16T07:31:37.572Z,2.20
2022-09-16T07:34:35.041Z,2.10
2022-09-16T07:37:32.490Z,2.20
2022-09-16T07:40:30.032Z,2.00
2022-09-16T07:43:27.502Z,2.20
2022-09-16T07:46:25.397Z,2.30
2022-09-16T07:49:22.854Z,2.00
2022-09-16T07:52:20.371Z,2.10
2022-09-16T07:55:17.801Z,2.20
2022-09-16T07:58:15.231Z,2.80
2022-09-16T08:01:12.698Z,2.70
2022-09-16T08:04:10.184Z,3.10
2022-09-16T08:07:07.595Z,2.50
2022-09-16T08:10:05.045Z,2.90
2022-09-16T08:13:02.706Z,2.40
2022-09-16T08:16:00.116Z,2.40
2022-09-16T08:18:57.515Z,2.20
2022-09-16T08:21:54.991Z,2.20
2022-09-16T08:24:52.443Z,2.10
2022-09-16T08:27:52.854Z,2.40
2022-09-16T08:30:53.382Z,1.90
2022-09-16T08:33:51.090Z,2.00
2022-09-16T08:36:48.861Z,2.10
2022-09-16T08:39:46.973Z,2.00
2022-09-16T08:42:44.515Z,2.50
2022-09-16T08:45:42.004Z,2.60
2022-09-16T08:48:40.037Z,2.00
2022-09-16T08:51:37.499Z,2.10
2022-09-16T08:54:34.981Z,2.20
2022-09-16T08:57:32.489Z,2.10
2022-09-16T09:00:29.988Z,2.30
2022-09-16T09:03:27.493Z,2.10
2022-09-16T09:06:24.952Z,1.90
2022-09-16T09:09:22.431Z,2.30
2022-09-16T09:12:20.922Z,2.30
2022-09-16T09:15:18.991Z,2.30
2022-09-16T09:18:16.484Z,2.00
2022-09-16T09:21:13.968Z,2.50
2022-09-16T09:24:11.444Z,2.80
2022-09-16T09:27:09.065Z,2.30
2022-09-16T09:30:06.540Z,2.50
2022-09-16T09:33:04.042Z,2.60
2022-09-16T09:36:03.067Z,2.40
2022-09-16T09:39:01.580Z,2.60
2022-09-16T09:41:59.070Z,2.80
2022-09-16T09:44:58.534Z,2.60
2022-09-16T09:47:59.149Z,3.10
2022-09-16T09:50:57.091Z,2.50
2022-09-16T09:53:54.569Z,2.60
2022-09-16T09:56:52.047Z,2.30
2022-09-16T09:59:49.512Z,2.70
2022-09-16T10:02:49.873Z,2.60
2022-09-16T10:05:47.770Z,2.50
2022-09-16T10:08:46.328Z,2.90
2022-09-16T10:11:43.789Z,2.80
2022-09-16T10:14:41.256Z,3.10
2022-09-16T10:17:38.748Z,3.00
2022-09-16T10:20:36.226Z,3.20
2022-09-16T10:23:33.713Z,2.80
2022-09-16T10:26:31.252Z,2.90
2022-09-16T10:29:28.725Z,3.40
2022-09-16T10:32:26.326Z,3.10
2022-09-16T10:35:23.834Z,3.10
2022-09-16T10:38:21.300Z,3.80
2022-09-16T10:41:18.778Z,3.60
2022-09-16T10:44:17.479Z,3.40
2022-09-16T10:47:15.175Z,3.10
2022-09-16T10:50:12.813Z,3.20
2022-09-16T10:53:10.459Z,3.00
2022-09-16T10:56:07.943Z,3.10
2022-09-16T10:59:06.191Z,3.40
2022-09-16T11:02:04.282Z,3.20
2022-09-16T11:05:01.978Z,2.80
2022-09-16T11:07:59.453Z,3.20
2022-09-16T11:10:56.922Z,3.20
2022-09-16T11:13:54.409Z,2.70
2022-09-16T11:16:51.872Z,3.30
2022-09-16T11:19:49.351Z,2.90
2022-09-16T11:22:48.227Z,3.00
2022-09-16T11:25:45.698Z,2.90
2022-09-16T11:28:43.190Z,3.30
2022-09-16T11:31:40.703Z,3.00
2022-09-16T11:34:38.866Z,3.10
2022-09-16T11:37:36.627Z,2.70
2022-09-16T11:40:34.158Z,3.00
2022-09-16T11:43:31.794Z,3.10
2022-09-16T11:46:29.300Z,2.30
2022-09-16T11:49:26.787Z,2.80
2022-09-16T11:52:25.435Z,2.70
2022-09-16T11:55:23.068Z,2.60
2022-09-16T11:58:20.534Z,2.40
2022-09-16T12:04:20.357Z,2.70
2022-09-16T12:07:17.870Z,2.30
2022-09-16T12:10:15.371Z,3.10
2022-09-16T12:13:14.161Z,2.50
2022-09-16T12:16:11.621Z,2.40
2022-09-16T12:19:09.247Z,2.50
2022-09-16T12:22:06.720Z,2.20
2022-09-16T12:25:04.227Z,2.40
2022-09-16T12:28:01.793Z,2.70
2022-09-16T12:30:59.285Z,2.60
2022-09-16T12:33:56.764Z,2.40
2022-09-16T12:36:54.240Z,2.10
2022-09-16T12:39:51.737Z,2.20
2022-09-16T12:42:49.241Z,2.70
2022-09-16T12:45:46.751Z,2.30
2022-09-16T12:48:44.226Z,2.60
2022-09-16T12:51:41.723Z,2.60
2022-09-16T12:54:51.247Z,2.50
2022-09-16T12:57:56.653Z,2.20
2022-09-16T13:00:54.134Z,2.80
2022-09-16T13:03:51.590Z,2.20
2022-09-16T13:06:49.417Z,2.50
2022-09-16T13:09:47.668Z,2.30
2022-09-16T13:12:45.163Z,2.40
2022-09-16T13:15:42.714Z,2.50
2022-09-16T13:18:40.200Z,2.50
2022-09-16T13:21:37.725Z,2.70
2022-09-16T13:24:35.212Z,2.40
2022-09-16T13:27:33.024Z,2.50
2022-09-16T13:30:30.524Z,2.30
2022-09-16T13:33:29.141Z,2.40
2022-09-16T13:36:27.152Z,2.40
2022-09-16T13:39:26.848Z,2.50
2022-09-16T13:42:26.242Z,2.30
2022-09-16T13:45:23.695Z,2.40
2022-09-16T13:48:21.136Z,2.50
2022-09-16T13:51:18.653Z,2.20
2022-09-16T13:54:16.070Z,2.30
2022-09-16T13:57:13.521Z,2.10
2022-09-16T14:00:11.009Z,2.40
2022-09-16T14:03:08.534Z,2.40
2022-09-16T14:06:06.167Z,2.30
2022-09-16T14:09:03.616Z,2.10
2022-09-16T14:12:02.667Z,2.30
2022-09-16T14:15:00.076Z,2.20
2022-09-16T14:17:57.543Z,2.20
2022-09-16T14:20:54.953Z,2.10
2022-09-16T14:26:49.848Z,2.40
2022-09-16T14:29:47.657Z,2.60
2022-09-16T14:32:45.090Z,2.30
2022-09-16T14:35:42.530Z,2.30
2022-09-16T14:38:46.065Z,2.60
2022-09-16T14:41:44.301Z,2.50
2022-09-16T14:44:41.728Z,2.30
2022-09-16T14:47:53.059Z,2.40
2022-09-16T14:50:50.658Z,2.00
2022-09-16T14:54:08.670Z,2.20
2022-09-16T14:57:05.479Z,2.40
2022-09-16T15:00:02.938Z,2.40
2022-09-16T15:03:05.283Z,2.40
2022-09-16T15:06:05.145Z,2.60
2022-09-16T15:09:02.597Z,2.30
2022-09-16T15:11:59.993Z,2.60
2022-09-16T15:14:57.446Z,2.50
2022-09-16T15:17:57.880Z,2.30
2022-09-16T15:20:56.101Z,3.00
2022-09-16T15:23:53.545Z,2.40
2022-09-16T15:26:50.972Z,2.70
2022-09-16T15:29:49.340Z,2.40
2022-09-16T15:32:46.790Z,2.40
2022-09-16T15:35:44.230Z,2.40
2022-09-16T15:38:44.654Z,2.60
2022-09-16T15:41:42.371Z,2.70
2022-09-16T15:44:39.781Z,2.20
2022-09-16T15:47:37.208Z,2.50
2022-09-16T15:50:34.743Z,2.70
2022-09-16T15:53:32.186Z,2.60
2022-09-16T15:56:29.682Z,2.60
2022-09-16T15:59:27.149Z,2.30
2022-09-16T16:02:24.613Z,2.80
2022-09-16T16:05:22.244Z,2.20
2022-09-16T16:08:19.649Z,2.50
2022-09-16T16:11:17.093Z,2.70
2022-09-16T16:14:14.508Z,3.40
2022-09-16T16:17:13.570Z,2.60
2022-09-16T16:20:12.402Z,2.40
2022-09-16T16:23:11.508Z,2.50
2022-09-16T16:26:09.039Z,3.30
2022-09-16T16:29:06.459Z,2.80
2022-09-16T16:32:03.925Z,2.90
2022-09-16T16:35:01.365Z,2.70
2022-09-16T16:37:59.506Z,3.20
2022-09-16T16:40:56.989Z,2.60
2022-09-16T16:43:54.413Z,3.00
2022-09-16T16:46:51.884Z,2.70
2022-09-16T16:49:51.537Z,2.80
2022-09-16T16:52:49.093Z,3.40
2022-09-16T16:55:46.566Z,3.00
2022-09-16T16:58:44.315Z,3.20
2022-09-16T17:01:46.585Z,3.10
2022-09-16T17:04:46.331Z,3.40
2022-09-16T17:07:44.007Z,3.30
2022-09-16T17:10:44.651Z,3.00
2022-09-16T17:13:42.477Z,3.80
2022-09-16T17:16:39.934Z,3.80
2022-09-16T17:19:37.350Z,4.00
2022-09-16T17:22:34.788Z,3.80
2022-09-16T17:25:32.798Z,3.50
2022-09-16T17:28:30.243Z,4.30
2022-09-16T17:31:28.071Z,3.30
2022-09-16T17:34:26.635Z,4.00
2022-09-16T17:37:24.102Z,3.10
2022-09-16T17:40:22.203Z,3.50
2022-09-16T17:43:19.765Z,3.30
2022-09-16T17:46:18.237Z,3.30
2022-09-16T17:49:15.881Z,3.30
2022-09-16T17:52:13.330Z,2.40
2022-09-16T17:55:10.784Z,2.60
2022-09-16T17:58:08.377Z,2.40
2022-09-16T18:01:06.182Z,2.50
2022-09-16T18:04:03.823Z,2.80
2022-09-16T18:07:01.442Z,2.80
2022-09-16T18:09:58.870Z,2.90
2022-09-16T18:12:58.261Z,2.70
2022-09-16T18:15:55.712Z,2.60
2022-09-16T18:18:53.123Z,2.10
2022-09-16T18:21:50.579Z,2.40
2022-09-16T18:24:48.039Z,2.60
2022-09-16T18:27:45.485Z,2.50
2022-09-16T18:30:44.231Z,3.10
2022-09-16T18:33:41.754Z,3.00
2022-09-16T18:36:39.630Z,2.50
2022-09-16T18:39:37.159Z,2.50
2022-09-16T18:42:34.949Z,2.20
2022-09-16T18:45:32.852Z,2.40
2022-09-16T18:48:30.306Z,3.10
2022-09-16T18:51:27.729Z,3.90
2022-09-16T18:54:28.258Z,3.00
2022-09-16T18:57:25.807Z,3.20
2022-09-16T19:00:23.249Z,2.60
2022-09-16T19:03:23.141Z,2.80
2022-09-16T19:06:20.558Z,2.50
2022-09-16T19:09:18.339Z,2.80
2022-09-16T19:12:15.822Z,3.00
2022-09-16T19:15:13.236Z,2.50
2022-09-16T19:18:10.661Z,2.50
2022-09-16T19:21:08.099Z,2.70
2022-09-16T19:24:06.378Z,2.50
2022-09-16T19:27:03.798Z,2.50
2022-09-16T19:30:01.239Z,2.30
2022-09-16T19:32:58.674Z,2.10
2022-09-16T19:35:56.274Z,2.30
2022-09-16T19:38:53.777Z,2.10
2022-09-16T19:41:51.240Z,2.00
2022-09-16T19:44:49.520Z,1.70
2022-09-16T19:47:46.955Z,3.10
2022-09-16T19:50:46.242Z,2.20
2022-09-16T19:53:43.895Z,2.00
2022-09-16T19:56:41.351Z,1.90
2022-09-16T19:59:38.774Z,1.90
2022-09-16T20:02:36.742Z,1.90
2022-09-16T20:05:34.184Z,1.80
2022-09-16T20:08:31.600Z,2.00
2022-09-16T20:11:29.111Z,2.10
2022-09-16T20:14:33.990Z,2.00
2022-09-16T20:17:31.449Z,2.10
2022-09-16T20:20:29.654Z,1.90
2022-09-16T20:23:28.333Z,2.40
2022-09-16T20:26:27.350Z,2.30
2022-09-16T20:29:36.655Z,2.00
2022-09-16T20:32:35.970Z,1.90
2022-09-16T20:35:42.660Z,2.40
2022-09-16T20:38:42.932Z,2.60
2022-09-16T20:41:42.004Z,1.90
2022-09-16T20:44:39.445Z,2.10
2022-09-16T20:47:37.305Z,2.10
2022-09-16T20:50:34.751Z,1.80
2022-09-16T20:53:32.193Z,2.10
2022-09-16T20:56:37.467Z,2.20
2022-09-16T20:59:36.579Z,2.30
2022-09-16T21:02:34.412Z,2.00
2022-09-16T21:05:31.889Z,2.00
2022-09-16T21:08:33.727Z,2.20
2022-09-16T21:11:32.145Z,2.20
2022-09-16T21:14:29.593Z,2.60
2022-09-16T21:17:27.014Z,2.70
2022-09-16T21:20:24.455Z,2.60
2022-09-16T21:23:22.524Z,3.20
2022-09-16T21:26:20.242Z,2.40
2022-09-16T21:29:18.531Z,2.20
2022-09-16T21:32:15.960Z,2.10
2022-09-16T21:35:14.496Z,2.00
2022-09-16T21:38:12.712Z,2.10
2022-09-16T21:41:10.135Z,2.20
2022-09-16T21:44:07.579Z,2.50
2022-09-16T21:47:11.726Z,2.00
2022-09-16T21:50:09.158Z,1.90
2022-09-16T21:53:06.603Z,1.90
2022-09-16T21:56:04.032Z,2.00
2022-09-16T21:59:01.471Z,1.80
2022-09-16T22:02:03.542Z,1.70
2022-09-16T22:05:02.205Z,1.70
2022-09-16T22:07:59.647Z,1.70
2022-09-16T22:10:57.571Z,1.70
2022-09-16T22:13:57.029Z,1.60
2022-09-16T22:16:54.503Z,1.70
2022-09-16T22:19:52.239Z,1.50
2022-09-16T22:22:49.661Z,1.60
2022-09-16T22:25:47.746Z,1.50
2022-09-16T22:28:45.253Z,1.40
2022-09-16T22:31:43.865Z,2.10
2022-09-16T22:34:41.425Z,1.90
2022-09-16T22:37:38.937Z,1.80
2022-09-16T22:40:36.469Z,2.00
2022-09-16T22:43:33.980Z,1.90
2022-09-16T22:46:31.604Z,1.80
2022-09-16T22:49:29.187Z,1.50
2022-09-16T22:52:26.678Z,2.00
2022-09-16T22:55:24.167Z,1.90
2022-09-16T22:58:21.633Z,1.80
2022-09-16T23:01:19.149Z,2.10
2022-09-16T23:04:16.744Z,2.10
2022-09-16T23:07:14.309Z,1.80
2022-09-16T23:10:12.373Z,1.80
2022-09-16T23:13:12.870Z,1.80
2022-09-16T23:16:10.976Z,2.00
2022-09-16T23:19:08.589Z,2.10
2022-09-16T23:22:06.106Z,2.10
2022-09-16T23:25:03.532Z,2.30
2022-09-16T23:28:00.946Z,2.00
2022-09-16T23:31:00.178Z,2.10
2022-09-16T23:33:57.765Z,1.90
2022-09-16T23:36:55.284Z,1.80
2022-09-16T23:39:52.860Z,1.80
2022-09-16T23:42:51.024Z,1.60
2022-09-16T23:45:48.439Z,1.50
2022-09-16T23:48:45.872Z,2.20
2022-09-16T23:51:43.323Z,1.80
2022-09-16T23:54:40.777Z,2.20
2022-09-16T23:57:38.199Z,2.00
